Aguirre, PR

11:42 PM AST en Diciembre 22, 2014 (GMT -0400)
Manejo de Emergencias Guayama | Change Station
CLOSE
Current Station
Estación meteorológica personal
Location: Guayama, GUAYAMA
Altura: 233 ft
Estaciones meteorológicas cercanas

Alt 233 ft 17.98 °N, 66.11 °W | Updated 28 minutes ago

Clear
Despejado
77.9 ° F
Sensación térmica 80 ° F
N
5.0
Viento Variable Viento desde Este
Gusts 13.0 mph

Hoy
Alta -- | Baja -- ° F
--% Posibilidad de precipitaciones
Ayer
Alta -- | Baja -- ° F
Precip. -- pul
6:51 AM 5:55 PM
Luna nueva, 2% visible
Presión 29.97 pul
Visibilidad 10.0 Millas
Nubes Despejado
Índice de calor 80 ° F
Punto de rocío 71 ° F
Humedad 80%
Precipitaciones -999.00 pul
Espesor de la nieve No disponible.
UV 0 de una escala de 12
Polen No disponible.
Calidad del aire No disponible.
Flu Activity No disponible.
METAR TJPS 230250Z 05005KT 10SM SKC 22/20 A2997

More Conditions Fewer Conditions

Presión 29.97 pul
Visibilidad 10.0 Millas
Nubes Despejado
Índice de calor 80 ° F
Punto de rocío 71 ° F
Humedad 80%
Precipitaciones -999.00 pul
Espesor de la nieve No disponible.
UV 0 de una escala de 12
Polen No disponible.
Calidad del aire No disponible.
Flu Activity No disponible.
METAR TJPS 230250Z 05005KT 10SM SKC 22/20 A2997

More Conditions Fewer Conditions

10-Day Weather Forecast

Almanac

Astronomía

Dec. 22, 2014 Salida Puesta
Hora real
Crepúsculo civil
Crepúsculo náutico
Crepúsculo astronómico
Luna
Horas de luz
Horas de luz
Tomorrow will be .
, % of the Moon is Illuminated

Extremos de hoy

Máximos del estado Bajos del estado

Community

WunderPhotos

Upload Photos

1,779,764 ¡fotos cargadas!

WunderBlogs® & News

Nearby

Calidad del aire

  Calidad del aire Índice AQ Contaminante
Not available.

Grosos de nieve

Estación Profundido Altura

Actividad de terremotos

Ciudad Distance Mag. Tiempo y dato
Magnitud mínima muestra es 2,5.

Temperaturas de aguas costeras

Lugar Temperatura

Estaciones meteorológicas cercanas